Date,TemperatureHighF,TemperatureAvgF,TemperatureLowF,DewpointHighF,DewpointAvgF,DewpointLowF,HumidityHigh,HumidityAvg,HumidityLow,PressureMaxIn,PressureMinIn,WindSpeedMaxMPH,WindSpeedAvgMPH,GustSpeedMaxMPH,PrecipitationSumIn
2014-1-6,46,33,9,45,22,-11,96,65,36,30.08,29.50,16,8,37,0.14
2014-1-7,17,10,4,-5,-10,-14,46,39,31,30.45,30.09,13,5,24,0.02
2014-1-8,27,20,11,14,1,-6,60,45,30,30.59,30.44,2,0,8,0.00
2014-1-9,36,29,26,21,18,15,73,64,51,30.63,30.47,2,0,6,0.00
2014-1-10,37,34,31,36,31,21,95,88,67,30.53,30.14,0,0,1,0.26
2014-1-11,52,44,36,50,41,-100,97,94,82,30.13,29.39,6,1,16,0.67
2014-1-12,50,46,41,44,31,27,81,56,45,30.00,29.54,12,5,28,0.04
2014-1-13,58,52,34,37,35,30,85,54,43,30.09,29.87,10,4,23,0.00
2014-1-14,52,46,40,45,43,36,94,89,56,29.91,29.70,5,1,16,0.22
2014-1-15,46,40,36,43,36,29,97,87,59,29.97,29.86,9,1,21,0.01
2014-1-16,38,34,31,30,21,16,84,59,41,30.02,29.88,9,1,13,0.00
2014-1-17,47,37,30,30,27,24,81,67,45,29.96,29.80,4,1,10,0.00
2014-1-18,36,28,23,31,14,-100,83,57,40,29.98,29.78,16,6,27,0.00
2014-1-19,47,34,22,24,17,8,70,51,38,29.96,29.73,7,2,19,0.00
2014-1-20,55,44,37,26,24,21,60,48,31,29.87,29.64,10,3,22,0.00
2014-1-21,38,28,14,27,21,6,89,77,61,29.88,29.72,7,2,19,0.23
2014-1-22,16,11,6,4,-2,-4,65,56,44,30.08,29.88,10,4,22,0.04
2014-1-23,24,16,10,11,2,-2,71,54,38,30.42,30.09,14,3,25,0.00
2014-1-24,22,15,9,0,-3,-5,56,45,31,30.53,30.10,9,3,19,0.00
2014-1-28,20,14,10,6,-5,-9,75,42,35,30.44,30.19,12,3,23,0.00
2014-1-29,23,16,10,7,-1,-6,81,49,29,30.35,30.20,11,2,19,0.00
2014-1-30,32,22,14,10,3,-2,61,44,27,30.45,30.18,4,0,11,0.00
2014-1-31,48,34,23,18,12,9,59,43,22,30.23,30.10,1,0,7,0.00